Time;durP1;ratioP1;P1;durP2;ratioP2;P2;SDS_P1;SDS_P2;PMS_P1;PMS_P2;Temp;Humidity;BMP_temperature;BMP_pressure;BME280_temperature;BME280_humidity;BME280_pressure;Samples;Min_cycle;Max_cycle;Signal;HPM_P1;HPM_P2
2022/06/05 00:00:17;;;;;;;;;24.75;23.00;;;;;20.24;100.00;101137.00;4991253;28;46841;-71
2022/06/05 00:02:53;;;;;;;;;32.75;30.50;;;;;20.22;100.00;101145.09;4969034;28;45515;-70
2022/06/05 00:05:26;;;;;;;;;35.25;29.00;;;;;20.21;100.00;101135.28;4991412;28;45645;-71
2022/06/05 00:08:14;;;;;;;;;35.25;28.25;;;;;20.21;100.00;101140.66;4970763;28;45434;-70
2022/06/05 00:10:50;;;;;;;;;30.50;27.75;;;;;20.21;100.00;101158.53;4975528;28;46242;-70
2022/06/05 00:13:21;;;;;;;;;37.00;28.50;;;;;20.20;100.00;101154.09;4976244;28;45530;-70
2022/06/05 00:15:47;;;;;;;;;31.00;29.75;;;;;20.19;100.00;101152.31;4962795;28;45600;-70
2022/06/05 00:18:12;;;;;;;;;34.00;30.50;;;;;20.19;100.00;101141.59;4976396;28;45685;-70
2022/06/05 00:20:40;;;;;;;;;28.75;28.50;;;;;20.17;100.00;101133.59;4978214;28;47745;-70
2022/06/05 00:23:09;;;;;;;;;24.00;21.50;;;;;20.14;100.00;101129.19;4979778;28;45524;-70
2022/06/05 00:26:07;;;;;;;;;30.50;29.25;;;;;20.13;100.00;101130.13;4991717;28;45384;-70
2022/06/05 00:29:00;;;;;;;;;32.75;28.25;;;;;20.11;100.00;101142.66;4993564;28;45413;-70
2022/06/05 00:31:40;;;;;;;;;27.75;24.50;;;;;20.10;100.00;101134.66;4981157;28;45955;-70
2022/06/05 00:34:06;;;;;;;;;28.75;24.50;;;;;20.10;100.00;101129.28;4975181;28;45305;-70
2022/06/05 00:36:45;;;;;;;;;28.00;25.67;;;;;20.09;100.00;101130.22;4979443;28;45501;-71
2022/06/05 00:39:29;;;;;;;;;23.67;21.67;;;;;20.08;100.00;101123.97;4973539;28;45290;-70
2022/06/05 00:42:21;;;;;;;;;23.67;21.67;;;;;20.05;100.00;101097.22;4975953;28;45615;-71
2022/06/05 00:44:50;;;;;;;;;25.33;19.33;;;;;20.07;100.00;101105.22;4985770;28;45540;-70
2022/06/05 00:47:20;;;;;;;;;24.33;22.00;;;;;20.07;100.00;101105.22;4979445;28;45500;-70
2022/06/05 00:49:46;;;;;;;;;26.33;23.00;;;;;20.05;100.00;101099.03;4978019;28;45336;-71
2022/06/05 00:52:15;;;;;;;;;25.00;22.67;;;;;20.01;100.00;101087.50;4994340;28;45436;-71
2022/06/05 00:54:41;;;;;;;;;27.00;22.67;;;;;20.03;100.00;101092.84;4978805;28;45576;-71
2022/06/05 00:57:11;;;;;;;;;22.00;20.00;;;;;20.01;100.00;101087.50;4961865;28;45528;-70
2022/06/05 00:59:39;;;;;;;;;19.00;19.00;;;;;20.00;100.00;101082.19;4979121;28;45630;-70
2022/06/05 01:02:05;;;;;;;;;19.00;19.00;;;;;19.99;100.00;101086.66;4984197;28;45772;-71
2022/06/05 01:04:33;;;;;;;;;22.67;20.33;;;;;19.98;100.00;101094.75;4978886;28;45699;-70
2022/06/05 01:06:58;;;;;;;;;18.00;17.67;;;;;19.98;100.00;101101.00;4977587;28;45315;-70
2022/06/05 01:09:24;;;;;;;;;24.00;19.67;;;;;19.97;100.00;101101.88;4979228;28;45586;-71
2022/06/05 01:12:10;;;;;;;;;16.00;16.00;;;;;19.96;100.00;101092.09;4993438;28;46851;-70
2022/06/05 01:14:49;;;;;;;;;17.67;16.67;;;;;19.97;100.00;101084.91;4979377;28;45639;-70
2022/06/05 01:17:39;;;;;;;;;14.00;13.33;;;;;19.94;100.00;101080.53;4980298;28;45488;-70
2022/06/05 01:20:26;;;;;;;;;17.00;15.33;;;;;19.93;100.00;101073.41;4975264;28;45457;-71
2022/06/05 01:23:16;;;;;;;;;15.67;13.33;;;;;19.93;100.00;101068.06;4976991;28;47465;-70
2022/06/05 01:25:54;;;;;;;;;18.67;16.00;;;;;19.91;100.00;101044.88;4976123;28;45347;-71
2022/06/05 01:28:23;;;;;;;;;16.33;16.33;;;;;19.90;100.00;101033.28;4978809;28;45377;-70
2022/06/05 01:30:55;;;;;;;;;12.33;12.33;;;;;19.88;100.00;101029.75;4978208;28;45488;-70
2022/06/05 01:33:25;;;;;;;;;19.67;16.33;;;;;19.86;100.00;101032.44;4977832;28;45554;-70
2022/06/05 01:35:56;;;;;;;;;15.33;15.33;;;;;19.86;100.00;101037.81;4963950;28;45512;-70
2022/06/05 01:38:31;;;;;;;;;16.00;15.00;;;;;19.85;100.00;101041.41;4978786;28;45470;-70
2022/06/05 01:41:02;;;;;;;;;17.67;17.67;;;;;19.83;100.00;101032.53;4978235;28;45434;-71
2022/06/05 01:43:34;;;;;;;;;17.00;15.67;;;;;19.84;100.00;101028.06;4977216;28;47217;-70
2022/06/05 01:46:18;;;;;;;;;15.67;15.00;;;;;19.82;100.00;101012.03;4960360;28;46129;-70
2022/06/05 01:48:59;;;;;;;;;17.33;14.00;;;;;19.83;100.00;101018.28;4978678;28;45511;-70
2022/06/05 01:51:44;;;;;;;;;19.33;16.33;;;;;19.79;100.00;101004.06;4978735;28;45434;-70
2022/06/05 01:54:18;;;;;;;;;18.00;15.33;;;;;19.77;100.00;101005.91;4963013;28;47582;-70
2022/06/05 01:56:49;;;;;;;;;22.00;16.33;;;;;19.75;100.00;101007.72;4993453;28;45357;-70
2022/06/05 01:59:19;;;;;;;;;21.33;16.00;;;;;19.75;100.00;101001.47;4977883;28;45563;-70
2022/06/05 02:01:48;;;;;;;;;15.67;15.33;;;;;19.71;100.00;101000.69;4978781;28;45549;-70
2022/06/05 02:04:21;;;;;;;;;20.00;18.33;;;;;19.69;100.00;100994.47;4977368;28;46578;-70
2022/06/05 02:06:58;;;;;;;;;16.00;15.33;;;;;19.67;100.00;100987.41;4980835;28;45336;-70
2022/06/05 02:09:31;;;;;;;;;16.00;14.33;;;;;19.65;100.00;100986.53;4977915;28;45256;-70
2022/06/05 02:11:57;;;;;;;;;14.33;13.67;;;;;19.61;100.00;100980.41;4993408;28;45473;-70
2022/06/05 02:14:25;;;;;;;;;16.33;15.33;;;;;19.60;100.00;100968.81;4992700;28;49021;-70
2022/06/05 02:16:50;;;;;;;;;12.67;12.67;;;;;19.59;100.00;100964.34;4976503;28;45497;-70
2022/06/05 02:19:17;;;;;;;;;15.67;15.00;;;;;19.56;100.00;100967.06;4977800;28;48845;-70
2022/06/05 02:21:44;;;;;;;;;16.00;14.67;;;;;19.56;100.00;100967.06;4960610;28;45580;-70
2022/06/05 02:24:12;;;;;;;;;10.33;10.00;;;;;19.54;100.00;100965.34;4977906;28;47788;-70
2022/06/05 02:26:37;;;;;;;;;14.33;12.00;;;;;19.53;100.00;100964.47;4976893;28;45436;-70
2022/06/05 02:29:24;;;;;;;;;15.33;14.33;;;;;19.51;100.00;100954.72;4968043;28;45348;-70
2022/06/05 02:32:17;;;;;;;;;18.00;15.33;;;;;19.50;100.00;100966.34;4958554;28;45291;-70
2022/06/05 02:35:14;;;;;;;;;14.33;14.00;;;;;19.48;100.00;100957.44;4967595;28;46647;-70
2022/06/05 02:37:50;;;;;;;;;14.33;14.33;;;;;19.46;100.00;100959.28;4963168;28;45446;-70
2022/06/05 02:40:22;;;;;;;;;23.67;22.00;;;;;19.43;100.00;100952.19;4942341;28;45513;-70
2022/06/05 02:43:21;;;;;;;;;41.00;33.75;;;;;19.45;100.00;100953.06;4959449;28;45404;-70
2022/06/05 02:45:52;;;;;;;;;38.50;33.00;;;;;19.44;100.00;100951.31;4934499;28;46510;-70
2022/06/05 02:48:42;;;;;;;;;44.25;33.25;;;;;19.42;100.00;100947.75;4958600;28;45302;-70
2022/06/05 02:51:15;;;;;;;;;29.00;27.25;;;;;19.43;100.00;100941.47;4941540;28;45509;-70
2022/06/05 02:53:48;;;;;;;;;27.75;27.25;;;;;19.40;100.00;100949.63;4957098;28;45464;-70
2022/06/05 02:56:14;;;;;;;;;22.33;20.67;;;;;19.38;100.00;100954.09;4971660;28;46197;-70
2022/06/05 02:58:39;;;;;;;;;18.33;18.33;;;;;19.34;100.00;100947.97;4959346;28;45219;-70
2022/06/05 03:03:49;;;;;;;;;17.00;14.33;;;;;19.32;100.00;100956.94;4975994;28;45524;-70
2022/06/05 03:06:17;;;;;;;;;19.00;14.33;;;;;19.30;100.00;100950.75;4976451;28;46038;-71
2022/06/05 03:08:43;;;;;;;;;17.00;16.00;;;;;19.27;100.00;100956.16;4975844;28;45519;-70
2022/06/05 03:11:08;;;;;;;;;17.67;14.33;;;;;19.25;100.00;100950.84;4969717;28;45341;-70
2022/06/05 03:13:34;;;;;;;;;16.33;14.67;;;;;19.27;100.00;100961.50;4983918;28;49136;-70
2022/06/05 03:15:59;;;;;;;;;14.00;14.00;;;;;19.24;100.00;100945.53;4965554;28;59656;-70
2022/06/05 03:18:25;;;;;;;;;14.00;14.00;;;;;19.22;100.00;100953.56;4957931;28;45596;-70
2022/06/05 03:20:57;;;;;;;;;15.00;13.00;;;;;19.20;100.00;100954.53;4950014;28;45387;-70
2022/06/05 03:23:33;;;;;;;;;16.00;13.33;;;;;19.19;100.00;100950.97;4968996;28;45298;-70
2022/06/05 03:25:59;;;;;;;;;12.00;11.00;;;;;19.17;100.00;100943.88;4969639;28;47361;-70
2022/06/05 03:28:26;;;;;;;;;15.67;14.33;;;;;19.18;100.00;100954.59;4956985;28;53611;-70
2022/06/05 03:30:52;;;;;;;;;15.00;13.00;;;;;19.18;100.00;100953.69;4957201;28;45502;-70
2022/06/05 03:33:17;;;;;;;;;18.00;15.33;;;;;19.15;100.00;100959.13;4956692;28;45548;-70
2022/06/05 03:35:45;;;;;;;;;17.00;14.67;;;;;19.14;100.00;100949.31;4941581;28;45967;-70
2022/06/05 03:38:19;;;;;;;;;15.00;15.00;;;;;19.15;100.00;100957.31;4939185;28;46520;-70
2022/06/05 03:40:45;;;;;;;;;15.33;14.67;;;;;19.15;100.00;100964.47;4952642;28;45372;-70
2022/06/05 03:43:10;;;;;;;;;15.67;14.67;;;;;19.16;100.00;100968.91;4957817;28;45228;-70
2022/06/05 03:45:36;;;;;;;;;15.67;15.67;;;;;19.18;100.00;100972.44;4957227;28;46470;-70
2022/06/05 03:48:02;;;;;;;;;16.00;13.33;;;;;19.17;100.00;100967.97;4972028;28;45391;-70
2022/06/05 03:50:27;;;;;;;;;16.00;15.00;;;;;19.17;100.00;100979.56;4957326;28;45294;-70
2022/06/05 03:52:53;;;;;;;;;18.67;14.67;;;;;19.15;100.00;100969.81;4956482;28;45821;-70
2022/06/05 03:55:20;;;;;;;;;17.67;16.67;;;;;19.14;100.00;100968.94;4938854;28;62205;-70
2022/06/05 03:57:46;;;;;;;;;16.00;15.00;;;;;19.11;100.00;100971.66;4956440;28;45557;-70
2022/06/05 04:00:15;;;;;;;;;16.33;15.67;;;;;19.10;100.00;100972.59;4944820;28;45553;-70
2022/06/05 04:02:41;;;;;;;;;14.67;13.00;;;;;19.10;100.00;100983.31;4956768;28;45653;-70
2022/06/05 04:05:08;;;;;;;;;15.00;13.00;;;;;19.10;100.00;100981.50;4956207;28;60190;-70
2022/06/05 04:07:33;;;;;;;;;15.67;14.00;;;;;19.13;100.00;100995.75;4956960;28;45712;-70
2022/06/05 04:09:59;;;;;;;;;13.00;11.00;;;;;19.16;100.00;100998.34;4960605;28;45568;-70
2022/06/05 04:12:24;;;;;;;;;11.67;11.67;;;;;19.18;100.00;100994.75;4957026;28;45675;-70
2022/06/05 04:14:50;;;;;;;;;13.00;13.00;;;;;19.21;100.00;101001.81;4956777;28;45681;-70
2022/06/05 04:17:15;;;;;;;;;13.00;13.00;;;;;19.23;100.00;101003.56;4956810;28;45484;-70
2022/06/05 04:19:41;;;;;;;;;12.67;11.33;;;;;19.27;100.00;101004.34;4956943;28;45473;-70
2022/06/05 04:22:06;;;;;;;;;12.00;12.00;;;;;19.31;100.00;101014.94;4940051;28;45627;-70
2022/06/05 04:24:31;;;;;;;;;11.67;10.67;;;;;19.33;100.00;101013.16;4956538;28;46627;-70
2022/06/05 04:26:59;;;;;;;;;14.00;14.00;;;;;19.37;100.00;101019.28;4974517;28;52883;-70
2022/06/05 04:29:25;;;;;;;;;17.67;14.67;;;;;19.38;100.00;101016.56;4976327;28;45500;-70
2022/06/05 04:31:51;;;;;;;;;14.33;12.00;;;;;19.36;100.00;101015.72;4975021;28;52388;-70
2022/06/05 04:34:22;;;;;;;;;15.00;14.00;;;;;19.40;100.00;101021.03;4980508;28;47664;-70
2022/06/05 04:36:50;;;;;;;;;13.00;12.00;;;;;19.37;100.00;101016.63;4979022;28;45353;-70
2022/06/05 04:39:17;;;;;;;;;16.00;16.00;;;;;19.37;100.00;101021.97;4971189;28;45472;-70
2022/06/05 04:41:43;;;;;;;;;16.33;13.33;;;;;19.35;100.00;101019.34;4976489;28;45222;-70
2022/06/05 04:44:12;;;;;;;;;17.00;15.67;;;;;19.35;100.00;101027.38;4990579;28;47840;-70
2022/06/05 04:46:37;;;;;;;;;15.33;14.00;;;;;19.33;100.00;101030.97;4975818;28;45304;-70
2022/06/05 04:49:04;;;;;;;;;15.67;15.00;;;;;19.35;100.00;101034.53;4957879;28;45589;-70
2022/06/05 04:51:29;;;;;;;;;16.67;14.67;;;;;19.38;100.00;101038.00;4976384;28;45210;-70
2022/06/05 04:53:56;;;;;;;;;14.67;14.67;;;;;19.43;100.00;101042.38;4975104;28;47220;-70
2022/06/05 04:56:24;;;;;;;;;19.67;18.67;;;;;19.46;100.00;101040.53;4957974;28;45525;-70
2022/06/05 04:58:51;;;;;;;;;19.00;16.67;;;;;19.49;100.00;101042.22;4977312;28;46008;-70
2022/06/05 05:01:20;;;;;;;;;19.00;17.33;;;;;19.53;100.00;101047.50;4977752;28;45314;-70
2022/06/05 05:03:46;;;;;;;;;18.33;15.00;;;;;19.57;100.00;101053.66;4975565;28;46795;-70
2022/06/05 05:06:12;;;;;;;;;18.00;14.33;;;;;19.59;100.00;101057.22;4976937;28;45512;-70
2022/06/05 05:08:37;;;;;;;;;16.33;15.00;;;;;19.61;100.00;101056.28;4979041;28;45743;-70
2022/06/05 05:11:03;;;;;;;;;18.33;16.00;;;;;19.67;100.00;101051.69;4979103;28;45474;-70
2022/06/05 05:13:29;;;;;;;;;20.33;20.33;;;;;19.71;100.00;101048.00;4979834;28;45705;-70
2022/06/05 05:15:55;;;;;;;;;14.33;14.00;;;;;19.80;100.00;101056.72;4967734;28;45417;-70
2022/06/05 05:18:21;;;;;;;;;14.00;14.00;;;;;19.86;100.00;101051.22;4979106;28;45579;-70
2022/06/05 05:20:46;;;;;;;;;13.00;12.00;;;;;19.91;100.00;101048.44;4961392;28;45549;-70
2022/06/05 05:23:12;;;;;;;;;16.00;15.00;;;;;19.96;100.00;101037.59;4978637;28;46859;-70
2022/06/05 05:25:38;;;;;;;;;21.33;15.00;;;;;20.01;100.00;101049.97;4977570;28;45507;-70
2022/06/05 05:28:06;;;;;;;;;15.67;14.67;;;;;20.04;100.00;101041.88;4977667;28;45670;-70
2022/06/05 05:30:32;;;;;;;;;14.67;14.67;;;;;20.08;100.00;101048.00;4985560;28;45357;-70
2022/06/05 05:32:58;;;;;;;;;15.67;13.00;;;;;20.11;100.00;101048.81;4977557;28;45867;-70
2022/06/05 05:35:24;;;;;;;;;14.00;14.00;;;;;20.13;100.00;101048.78;4965437;28;45337;-71
2022/06/05 05:37:50;;;;;;;;;15.00;14.00;;;;;20.18;100.00;101054.91;4960875;28;45581;-70
2022/06/05 05:42:59;;;;;;;;;16.67;14.33;;;;;20.26;100.00;101052.06;4978109;28;46359;-71
2022/06/05 05:45:24;;;;;;;;;19.67;15.00;;;;;20.30;100.00;101051.06;4977485;28;65239;-70
2022/06/05 05:47:50;;;;;;;;;16.33;15.33;;;;;20.33;100.00;101054.53;4977718;28;45460;-71
2022/06/05 05:50:16;;;;;;;;;15.00;14.33;;;;;20.38;100.00;101055.28;4980012;28;45631;-70
2022/06/05 05:52:44;;;;;;;;;20.33;16.00;;;;;20.42;100.00;101062.34;4979367;28;47636;-70
2022/06/05 05:55:12;;;;;;;;;18.33;14.67;;;;;20.44;100.00;101056.03;4987814;28;45319;-70
2022/06/05 05:57:39;;;;;;;;;18.33;15.67;;;;;20.49;100.00;101057.72;4978908;28;45399;-70
2022/06/05 06:00:13;;;;;;;;;19.33;15.33;;;;;20.51;100.00;101053.22;4960606;28;45460;-70
2022/06/05 06:02:39;;;;;;;;;17.00;15.67;;;;;20.55;100.00;101054.88;4983005;28;46045;-70
2022/06/05 06:05:07;;;;;;;;;18.67;17.33;;;;;20.59;100.00;101056.56;4977809;28;45384;-70
2022/06/05 06:07:33;;;;;;;;;17.67;14.67;;;;;20.64;100.00;101051.06;4993690;28;45552;-70
2022/06/05 06:10:00;;;;;;;;;17.67;17.00;;;;;20.66;100.00;101049.22;4992804;28;46738;-69
2022/06/05 06:12:25;;;;;;;;;14.00;13.00;;;;;20.65;100.00;101048.34;4960438;28;45815;-70
2022/06/05 06:14:53;;;;;;;;;17.00;17.00;;;;;20.68;100.00;101052.75;4978573;28;45425;-70
2022/06/05 06:17:20;;;;;;;;;18.67;16.67;;;;;20.69;100.00;101048.25;4976457;28;47371;-70
2022/06/05 06:19:46;;;;;;;;;17.67;15.00;;;;;20.73;100.00;101053.50;4980089;28;45564;-70
2022/06/05 06:22:15;;;;;;;;;16.00;14.00;;;;;20.74;100.00;101038.28;4980272;28;45799;-70
2022/06/05 06:24:40;;;;;;;;;19.00;16.00;;;;;20.74;100.00;101035.59;4976085;28;45745;-69
2022/06/05 06:27:05;;;;;;;;;14.00;12.67;;;;;20.75;100.00;101032.00;4977392;28;50966;-69
2022/06/05 06:29:31;;;;;;;;;15.33;13.33;;;;;20.76;100.00;101025.69;4977447;28;47030;-70
2022/06/05 06:31:56;;;;;;;;;13.67;13.33;;;;;20.75;100.00;101032.88;4959518;28;46492;-70
2022/06/05 06:34:22;;;;;;;;;15.67;14.00;;;;;20.76;100.00;101026.56;4976990;28;55984;-70
2022/06/05 06:36:49;;;;;;;;;15.33;14.33;;;;;20.78;100.00;101030.13;4978354;28;45219;-70
2022/06/05 06:39:14;;;;;;;;;15.33;12.67;;;;;20.81;100.00;101030.00;4977379;28;45520;-69
2022/06/05 06:41:39;;;;;;;;;12.67;11.33;;;;;20.83;100.00;101030.00;4976565;28;59895;-70
2022/06/05 06:44:05;;;;;;;;;17.67;16.33;;;;;20.86;100.00;101032.56;4977517;28;45351;-70
2022/06/05 06:46:32;;;;;;;;;18.67;14.33;;;;;20.89;100.00;101024.44;4977095;28;45327;-70
2022/06/05 06:48:57;;;;;;;;;14.33;14.33;;;;;20.94;100.00;101019.81;4977335;28;45813;-71
2022/06/05 06:51:32;;;;;;;;;17.00;15.67;;;;;21.01;100.00;101026.75;4977437;28;47528;-71
2022/06/05 06:53:58;;;;;;;;;15.33;14.00;;;;;21.05;100.00;101023.06;4969824;28;45555;-70
2022/06/05 06:56:28;;;;;;;;;12.67;12.67;;;;;21.09;100.00;101023.84;4973448;28;45875;-71
2022/06/05 06:59:15;;;;;;;;;19.67;17.67;;;;;21.09;100.00;101014.00;4969997;28;45473;-71
2022/06/05 07:01:41;;;;;;;;;15.67;14.67;;;;;21.10;100.00;101018.44;4975150;28;46912;-71
2022/06/05 07:04:08;;;;;;;;;16.67;16.67;;;;;21.12;100.00;101016.59;4977328;28;45515;-70
2022/06/05 07:06:56;;;;;;;;;13.67;12.00;;;;;21.14;100.00;101005.78;4975527;28;45519;-70
2022/06/05 07:10:24;;;;;;;;;14.00;13.67;;;;;21.15;100.00;101003.09;4974074;28;45653;-70
2022/06/05 07:13:01;;;;;;;;;16.33;13.33;;;;;21.13;100.00;100999.53;4976378;28;47211;-72
2022/06/05 07:18:49;;;;;;;;;15.00;15.00;;;;;21.10;100.00;101014.88;4970468;28;45609;-72
2022/06/05 07:21:21;;;;;;;;;13.00;13.00;;;;;21.08;100.00;101008.66;4976660;28;45843;-72
2022/06/05 07:24:06;;;;;;;;;12.00;11.67;;;;;21.08;100.00;100995.25;4974444;28;47492;-73
2022/06/05 07:27:25;;;;;;;;;12.33;12.33;;;;;21.05;100.00;100996.22;4963802;28;45515;-73
2022/06/05 07:30:07;;;;;;;;;12.67;12.67;;;;;21.06;100.00;100999.78;4956604;28;45565;-73
2022/06/05 07:32:33;;;;;;;;;15.33;13.00;;;;;21.08;100.00;100996.13;4955631;28;45566;-73
2022/06/05 07:35:21;;;;;;;;;13.33;11.33;;;;;21.13;100.00;100996.84;4974699;28;46091;-73
2022/06/05 07:38:07;;;;;;;;;17.33;15.67;;;;;21.19;100.00;101007.41;4947553;28;45420;-74
2022/06/05 07:40:41;;;;;;;;;12.00;10.33;;;;;21.27;100.00;101011.69;4956141;28;45553;-72
2022/06/05 07:43:58;;;;;;;;;8.67;8.67;;;;;21.31;100.00;101011.59;4956053;28;45520;-71
2022/06/05 07:46:34;;;;;;;;;10.00;8.67;;;;;21.35;100.00;101001.59;4958738;28;45510;-73
2022/06/05 07:49:03;;;;;;;;;8.67;8.00;;;;;21.47;100.00;101003.94;4971788;28;45591;-73
2022/06/05 07:54:29;;;;;;;;;10.00;10.00;;;;;21.60;100.00;100986.47;4971090;28;45340;-71
2022/06/05 07:58:08;;;;;;;;;11.33;9.00;;;;;21.70;100.00;100995.13;4971814;28;46783;-71
2022/06/05 08:00:33;;;;;;;;;9.00;9.00;;;;;21.78;100.00;101009.19;4965212;28;46668;-70
2022/06/05 08:02:59;;;;;;;;;10.67;9.00;;;;;21.80;100.00;101012.72;4953881;28;45813;-69
2022/06/05 08:06:10;;;;;;;;;9.67;8.33;;;;;21.87;100.00;101016.09;4967320;28;45757;-71
2022/06/05 08:08:35;;;;;;;;;8.00;7.00;;;;;21.91;100.00;101007.00;4933070;28;47261;-70
2022/06/05 08:11:06;;;;;;;;;8.67;7.00;;;;;21.93;100.00;101008.69;4955663;28;45464;-69
2022/06/05 08:14:18;;;;;;;;;9.00;9.00;;;;;21.98;100.00;101004.03;4960828;28;45562;-70
2022/06/05 08:17:23;;;;;;;;;9.00;8.00;;;;;22.10;100.00;101012.63;4959885;28;45496;-70
2022/06/05 08:19:52;;;;;;;;;7.00;6.33;;;;;22.18;100.00;101026.72;4964571;28;47936;-71
2022/06/05 08:22:19;;;;;;;;;6.33;6.33;;;;;22.19;100.00;101017.72;4962070;28;45452;-71
2022/06/05 08:24:45;;;;;;;;;8.00;6.00;;;;;22.24;100.00;101031.91;4961893;28;45406;-70
2022/06/05 08:27:16;;;;;;;;;5.33;5.33;;;;;22.30;100.00;101017.34;4947430;28;45521;-70
2022/06/05 08:29:57;;;;;;;;;6.67;5.00;;;;;22.26;100.00;101024.66;4943390;28;45841;-70
2022/06/05 08:32:25;;;;;;;;;4.00;4.00;;;;;22.22;100.00;101025.72;4958968;28;45451;-70
2022/06/05 08:34:51;;;;;;;;;4.00;4.00;;;;;22.20;100.00;101025.72;4953187;28;45493;-72
2022/06/05 08:43:40;;;;;;;;;5.33;5.33;;;;;22.17;100.00;101038.44;4961562;28;45388;-71
2022/06/05 08:46:25;;;;;;;;;5.33;5.00;;;;;22.13;100.00;101048.41;4954952;28;45364;-71
2022/06/05 08:55:32;;;;;;;;;7.33;5.00;;;;;21.80;100.00;101061.13;4957118;28;45307;-71
2022/06/05 08:58:15;;;;;;;;;7.67;7.67;;;;;21.61;100.00;101066.16;4960633;28;45560;-71
2022/06/05 09:00:52;;;;;;;;;5.67;5.67;;;;;21.57;100.00;101063.63;4942891;28;45274;-72
2022/06/05 09:03:31;;;;;;;;;5.33;5.00;;;;;21.55;100.00;101049.38;4958944;28;46720;-71
2022/06/05 09:06:25;;;;;;;;;5.33;5.00;;;;;21.58;100.00;101051.97;4958680;28;45614;-73
2022/06/05 09:08:58;;;;;;;;;7.00;6.00;;;;;21.66;100.00;101031.09;4950681;28;45356;-72
2022/06/05 09:11:23;;;;;;;;;7.67;5.67;;;;;21.76;100.00;101032.56;4961127;28;45363;-72
2022/06/05 09:14:02;;;;;;;;;7.00;7.00;;;;;21.86;100.00;101035.84;4968767;28;45892;-71
2022/06/05 09:16:33;;;;;;;;;9.67;8.33;;;;;21.95;100.00;101044.50;4959023;28;45434;-71
2022/06/05 09:18:59;;;;;;;;;8.00;7.00;;;;;21.99;100.00;101050.63;4954662;28;45509;-71
2022/06/05 09:24:59;;;;;;;;;4.67;4.67;;;;;22.06;100.00;101068.34;5156865;23;45587;-71
2022/06/05 09:27:35;;;;;;;;;7.00;5.33;;;;;22.09;100.00;101072.72;4967032;28;45476;-71
2022/06/05 09:30:10;;;;;;;;;6.67;6.67;;;;;22.14;100.00;101074.38;4977799;28;45436;-72
2022/06/05 09:32:56;;;;;;;;;6.00;6.00;;;;;22.10;100.00;101079.84;4960683;28;45370;-71
2022/06/05 09:35:29;;;;;;;;;5.67;5.67;;;;;22.04;100.00;101082.75;4978101;28;46882;-71
2022/06/05 09:38:02;;;;;;;;;6.00;6.00;;;;;22.02;100.00;101092.69;4980679;28;45591;-71
2022/06/05 09:40:36;;;;;;;;;6.00;6.00;;;;;21.96;100.00;101091.06;4992825;28;45506;-71
2022/06/05 09:43:26;;;;;;;;;10.00;8.00;;;;;21.98;100.00;101100.84;4986460;28;45711;-73
2022/06/05 09:46:09;;;;;;;;;8.33;8.00;;;;;21.97;100.00;101096.41;4972309;28;46593;-70
2022/06/05 09:49:11;;;;;;;;;7.33;7.33;;;;;22.02;100.00;101108.81;4980176;28;45550;-72
2022/06/05 09:51:40;;;;;;;;;8.33;8.33;;;;;21.98;100.00;101106.22;4977309;28;45531;-72
2022/06/05 09:54:30;;;;;;;;;5.00;5.00;;;;;21.94;100.00;101114.44;4980642;28;45532;-71
2022/06/05 10:00:15;;;;;;;;;9.33;8.00;;;;;21.98;100.00;101116.09;4983955;28;45474;-69
2022/06/05 10:02:42;;;;;;;;;11.33;8.67;;;;;22.08;100.00;101106.81;4960385;28;45382;-71
2022/06/05 10:05:20;;;;;;;;;10.00;10.00;;;;;22.23;100.00;101117.09;4978315;28;45545;-71
2022/06/05 10:07:55;;;;;;;;;8.67;8.67;;;;;22.30;100.00;101131.22;4985517;28;47152;-69
2022/06/05 10:10:35;;;;;;;;;9.67;9.67;;;;;22.26;100.00;101140.31;4967417;28;45711;-71
2022/06/05 10:13:24;;;;;;;;;10.33;10.33;;;;;22.15;100.00;101140.66;4964053;28;45846;-70
2022/06/05 10:15:56;;;;;;;;;10.33;10.33;;;;;22.11;100.00;101138.16;4949576;28;45541;-70
2022/06/05 10:18:37;;;;;;;;;9.33;9.33;;;;;22.09;100.00;101146.22;4975887;28;46626;-71
2022/06/05 10:21:08;;;;;;;;;14.33;12.33;;;;;22.06;100.00;101145.44;4967240;28;45762;-71
2022/06/05 10:23:53;;;;;;;;;8.33;7.33;;;;;22.03;100.00;101141.03;4972905;28;45489;-70
2022/06/05 10:26:33;;;;;;;;;14.67;12.33;;;;;22.01;100.00;101148.28;4970122;28;45548;-72
2022/06/05 10:29:28;;;;;;;;;13.33;11.67;;;;;22.02;100.00;101151.84;4972595;28;46269;-70
2022/06/05 10:31:57;;;;;;;;;13.67;13.67;;;;;21.90;100.00;101163.88;4966389;28;45566;-69
2022/06/05 10:34:34;;;;;;;;;13.00;12.00;;;;;21.83;100.00;101162.28;4970728;28;45949;-71
2022/06/05 10:37:04;;;;;;;;;14.67;14.00;;;;;21.77;100.00;101167.84;4971066;28;45580;-69
2022/06/05 10:39:51;;;;;;;;;15.00;13.00;;;;;21.71;100.00;101160.84;4956463;28;45587;-69
2022/06/05 10:42:31;;;;;;;;;12.67;12.67;;;;;21.70;100.00;101146.53;4975792;28;45602;-70
2022/06/05 10:45:22;;;;;;;;;12.67;11.00;;;;;21.72;100.00;101146.47;4969306;28;45435;-71
2022/06/05 10:48:07;;;;;;;;;15.67;14.00;;;;;21.73;100.00;101155.41;4970027;28;45461;-69
2022/06/05 10:50:38;;;;;;;;;16.67;15.67;;;;;21.82;100.00;101155.13;4969848;28;46296;-69
2022/06/05 10:53:12;;;;;;;;;17.33;15.67;;;;;21.91;100.00;101161.13;4957741;28;45468;-71
2022/06/05 10:56:03;;;;;;;;;19.67;17.00;;;;;21.98;100.00;101160.00;4970524;28;45515;-68
2022/06/05 10:58:52;;;;;;;;;20.67;18.67;;;;;22.03;100.00;101159.84;4972455;28;45684;-68
2022/06/05 11:01:45;;;;;;;;;14.67;13.67;;;;;22.08;100.00;101152.53;4973727;28;47572;-68
2022/06/05 11:04:45;;;;;;;;;13.33;12.33;;;;;22.08;100.00;101148.97;4967404;28;45486;-68
2022/06/05 11:07:13;;;;;;;;;15.33;14.33;;;;;21.99;100.00;101147.44;4974707;28;45421;-68
2022/06/05 11:10:00;;;;;;;;;13.00;11.00;;;;;21.92;100.00;101146.75;4975494;28;45520;-68
2022/06/05 11:15:25;;;;;;;;;14.00;13.33;;;;;21.92;100.00;101153.94;4974790;28;45457;-69
2022/06/05 11:18:18;;;;;;;;;13.33;13.33;;;;;21.96;100.00;101145.72;4974044;28;45620;-68
2022/06/05 11:20:54;;;;;;;;;12.00;11.67;;;;;21.96;100.00;101160.97;4975292;28;45656;-68
2022/06/05 11:23:22;;;;;;;;;16.00;12.67;;;;;22.03;100.00;101158.97;4975425;28;47372;-69
2022/06/05 11:26:05;;;;;;;;;16.67;13.67;;;;;22.00;100.00;101169.81;4974664;28;45391;-69
2022/06/05 11:28:42;;;;;;;;;14.67;13.67;;;;;22.12;100.00;101166.81;4971805;28;45272;-68
2022/06/05 11:31:40;;;;;;;;;14.33;14.00;;;;;22.16;100.00;101163.09;4976462;28;45539;-68
2022/06/05 11:34:32;;;;;;;;;17.67;14.00;;;;;22.20;100.00;101168.28;4975144;28;45716;-67
2022/06/05 11:37:10;;;;;;;;;13.33;13.33;;;;;22.30;100.00;101168.88;4974924;28;45398;-68
2022/06/05 11:39:38;;;;;;;;;13.67;13.67;;;;;22.31;100.00;101169.78;4976579;28;45332;-69
2022/06/05 11:42:10;;;;;;;;;13.33;12.33;;;;;22.25;100.00;101180.72;4976168;28;45288;-69
2022/06/05 11:44:41;;;;;;;;;16.00;13.67;;;;;22.15;100.00;101174.75;4971946;28;45811;-69
2022/06/05 11:47:26;;;;;;;;;16.00;15.00;;;;;22.04;100.00;101187.63;4959313;28;46149;-68
2022/06/05 11:50:01;;;;;;;;;19.67;16.00;;;;;21.90;100.00;101190.75;4975100;28;45389;-69
2022/06/05 11:52:38;;;;;;;;;15.33;14.33;;;;;21.74;100.00;101198.41;4958842;28;45523;-69
2022/06/05 11:55:13;;;;;;;;;17.00;16.00;;;;;21.73;100.00;101203.78;4982448;28;45967;-69
2022/06/05 11:57:46;;;;;;;;;13.67;13.67;;;;;21.69;100.00;101200.34;4971734;28;45328;-69
2022/06/05 12:00:16;;;;;;;;;17.00;13.33;;;;;21.67;100.00;101204.84;4976205;28;45441;-68
2022/06/05 12:02:48;;;;;;;;;13.33;13.33;;;;;21.74;100.00;101202.88;4975914;28;45331;-69
2022/06/05 12:05:22;;;;;;;;;14.00;14.00;;;;;21.94;100.00;101203.16;4976712;28;46827;-69
2022/06/05 12:07:49;;;;;;;;;11.00;10.00;;;;;22.10;100.00;101204.47;4975710;28;45486;-68